Terminal Aerodrome Forecast
Issued by NWS Cleveland, OH

Home | Current Version | Previous Version | Text Only | Print | Product List | Glossary Off
Versions: 1 2 3 4 5 6 7 8 9 10 11 12 13 14 15 16 17 18 19 20 21 22 23 24 25 26 27 28 29 30 31 32 33 34 35

000
FTUS41 KCLE 280408 AAB
TAFCLE
TAF AMD
KCLE 280408Z 2804/2906 VRB04KT P6SM BKN120 OVC250
     FM280800 04003KT 6SM BR SCT015 OVC025
     FM280900 01008KT 4SM -RA BR SCT008 OVC012
      TEMPO 2812/2816 2SM -RA BR OVC008
     FM281800 36010KT P6SM OVC015=

USA.gov is the U.S. government's official web portal to all federal, state and local government web resources and services.